This is the latest recevied weather packets stored in our database for station/object DC2MP. If no packets are shown the sender has not sent any weather packets the latest 10 day(s).
| Time | Temp. | Humidity | Pressure | Rain* | Wind** | Luminosity | Snow |
|---|---|---|---|---|---|---|---|
| 1778100543 | 8.33° C | 95% | 1011.6 hPa | 0 mm | - | - | - |
| 1778096943 | 7.78° C | 95% | 1011.1 hPa | 0 mm | - | - | - |
| 1778093343 | 7.78° C | 92% | 1010.5 hPa | 0 mm | - | - | - |
| 1778089743 | 8.89° C | 90% | 1010 hPa | 0 mm | - | - | - |
| 1778086143 | 8.33° C | 87% | 1010 hPa | 1.78 mm | - | - | - |
| 1778082543 | 10.56° C | 74% | 1009.2 hPa | 0.51 mm | - | - | - |
| 1778078943 | 15° C | 62% | 1007.1 hPa | 0 mm | - | - | - |
| 1778075343 | 13.89° C | 70% | 1007.1 hPa | 0 mm | - | - | - |
| 1778071743 | 13.33° C | 69% | 1007.8 hPa | 0 mm | - | - | - |
| 1778068143 | 15° C | 65% | 1006.6 hPa | 0 mm | - | - | - |
| 1778064543 | 15.56° C | 59% | 1006.6 hPa | 0 mm | - | - | - |
| 1778060944 | 15.56° C | 60% | 1007 hPa | 0 mm | - | - | - |
| 1778057343 | 13.33° C | 71% | 1007.5 hPa | 0 mm | - | - | - |
| 1778053743 | 11.67° C | 77% | 1007.5 hPa | 0 mm | - | - | - |
| 1778046543 | 8.89° C | 89% | 1008 hPa | 0 mm | - | - | - |
| 1778042943 | 7.22° C | 93% | 1008.4 hPa | 0 mm | - | - | - |
| 1778039343 | 8.33° C | 90% | 1008.9 hPa | 0 mm | - | - | - |
| 1778035744 | 8.33° C | 88% | 1009.5 hPa | 0 mm | - | - | - |
| 1778032143 | 8.89° C | 88% | 1010.2 hPa | 0 mm | - | - | - |
| 1778028543 | 9.44° C | 89% | 1010.4 hPa | 0 mm | - | - | - |
| 1778024943 | 8.89° C | 90% | 1010.7 hPa | 0 mm | - | - | - |
| 1778021343 | 9.44° C | 90% | 1010.9 hPa | 0 mm | - | - | - |
| 1778017743 | 10° C | 87% | 1011 hPa | 0 mm | - | - | - |
| 1778014143 | 11.67° C | 76% | 1011.2 hPa | 1.02 mm | - | - | - |
| 1778010543 | 13.33° C | 57% | 1011.1 hPa | 0 mm | - | - | - |
* Rain latest hour (hover to see other rain measurements)
** Current wind speed in m/s (hover to see current wind gust speed)